Terminal Aerodrome Forecast
Issued by NWS

Home | Current Version | Previous Version | Text Only | Print | Product List | Glossary On
Versions: 1 2 3 4 5 6 7 8 9 10 11 12 13 14 15 16 17 18 19 20 21 22 23
000
FTUS42 KJAX 220900 AAB
TAFVQQ
TAF AMD
KVQQ 220903Z 2209/2306 VRB02KT P6SM SKC
      TEMPO 2209/2212 2SM BR
     FM221500 01008KT P6SM SKC
     FM230000 VRB02KT P6SM SKC=

USA.gov is the U.S. government's official web portal to all federal, state and local government web resources and services.